Time;durP1;ratioP1;P1;durP2;ratioP2;P2;SDS_P1;SDS_P2;PMS_P1;PMS_P2;Temp;Humidity;BMP_temperature;BMP_pressure;BME280_temperature;BME280_humidity;BME280_pressure;Samples;Min_cycle;Max_cycle;Signal;HPM_P1;HPM_P2
2023/07/22 00:02:22;;;;;;;2.15;0.63;;;14.40;99.90;;;;;;5092101;28;20044;-83
2023/07/22 00:05:12;;;;;;;1.58;0.75;;;14.40;99.90;;;;;;5078721;28;20063;-82
2023/07/22 00:07:58;;;;;;;5.00;0.80;;;14.30;99.90;;;;;;5079166;28;20082;-83
2023/07/22 00:10:44;;;;;;;3.20;0.70;;;14.40;99.90;;;;;;5096268;28;20044;-83
2023/07/22 00:13:31;;;;;;;2.97;0.55;;;14.30;99.90;;;;;;5078822;28;20048;-84
2023/07/22 00:16:17;;;;;;;2.33;0.68;;;14.30;99.90;;;;;;5095694;28;20850;-83
2023/07/22 00:19:03;;;;;;;3.40;0.90;;;14.30;99.90;;;;;;5082664;28;20109;-82
2023/07/22 00:21:51;;;;;;;2.28;0.70;;;14.30;99.90;;;;;;5078073;28;20048;-83
2023/07/22 00:24:38;;;;;;;1.77;0.60;;;14.30;99.90;;;;;;5081013;28;20435;-83
2023/07/22 00:27:24;;;;;;;2.70;0.70;;;14.30;99.90;;;;;;5097744;28;20082;-84
2023/07/22 00:30:10;;;;;;;5.38;0.88;;;14.30;99.90;;;;;;5096214;28;20052;-82
2023/07/22 00:32:57;;;;;;;5.75;0.93;;;14.30;99.90;;;;;;5077402;28;20052;-84
2023/07/22 00:35:47;;;;;;;3.58;0.60;;;14.40;99.90;;;;;;5066327;28;20178;-83
2023/07/22 00:38:33;;;;;;;1.92;0.50;;;14.40;99.90;;;;;;5082738;28;20048;-83
2023/07/22 00:41:19;;;;;;;4.97;0.68;;;14.40;99.90;;;;;;5097198;28;20142;-83
2023/07/22 00:44:05;;;;;;;5.07;0.60;;;14.40;99.90;;;;;;5057953;28;20127;-84
2023/07/22 00:46:55;;;;;;;3.20;0.82;;;14.40;99.90;;;;;;5102890;28;20048;-83
2023/07/22 00:49:41;;;;;;;3.67;0.70;;;14.40;99.90;;;;;;5098734;28;20055;-83
2023/07/22 00:52:27;;;;;;;1.98;0.43;;;14.40;99.90;;;;;;5079682;28;20042;-82
2023/07/22 00:55:13;;;;;;;2.33;0.57;;;14.30;99.90;;;;;;5078070;28;20110;-82
2023/07/22 00:57:59;;;;;;;4.07;0.82;;;14.30;99.90;;;;;;5079067;28;20048;-81
2023/07/22 01:00:46;;;;;;;5.47;0.90;;;14.20;99.90;;;;;;5094954;28;20044;-82
2023/07/22 01:03:32;;;;;;;2.50;0.70;;;14.10;99.90;;;;;;5095130;28;20416;-82
2023/07/22 01:06:20;;;;;;;2.25;0.63;;;14.10;99.90;;;;;;5096790;28;20052;-83
2023/07/22 01:09:09;;;;;;;8.40;1.23;;;14.10;99.90;;;;;;5095226;28;20484;-83
2023/07/22 01:11:55;;;;;;;4.35;0.80;;;14.00;99.90;;;;;;5096442;28;20052;-82
2023/07/22 01:14:42;;;;;;;5.03;0.80;;;13.90;99.90;;;;;;5093487;28;20492;-83
2023/07/22 01:17:28;;;;;;;3.00;0.80;;;13.90;99.90;;;;;;5093853;28;20181;-84
2023/07/22 01:20:16;;;;;;;4.38;1.05;;;13.90;99.90;;;;;;5075403;28;20060;-83
2023/07/22 01:23:03;;;;;;;2.08;0.85;;;13.80;99.90;;;;;;5092986;28;20537;-82
2023/07/22 01:25:50;;;;;;;4.15;0.90;;;13.80;99.90;;;;;;5092635;28;20051;-83
2023/07/22 01:28:36;;;;;;;2.55;0.90;;;13.70;99.90;;;;;;5091909;28;20088;-83
2023/07/22 01:31:22;;;;;;;2.25;0.90;;;13.70;99.90;;;;;;5061270;28;20044;-82
2023/07/22 01:34:08;;;;;;;5.43;1.48;;;13.60;99.90;;;;;;5092081;28;20044;-82
2023/07/22 01:36:54;;;;;;;5.72;1.73;;;13.60;99.90;;;;;;5091943;28;20044;-82
2023/07/22 01:39:40;;;;;;;10.05;2.80;;;13.50;99.90;;;;;;5093228;28;20044;-83
2023/07/22 01:42:27;;;;;;;3.75;1.63;;;13.40;99.90;;;;;;5077595;28;20062;-81
2023/07/22 01:45:13;;;;;;;5.05;1.85;;;13.30;99.90;;;;;;5091571;28;20507;-82
2023/07/22 01:47:59;;;;;;;5.35;2.20;;;13.30;99.90;;;;;;5073942;28;20062;-83
2023/07/22 01:50:45;;;;;;;3.78;1.80;;;13.20;99.90;;;;;;5093339;28;20078;-83
2023/07/22 01:53:31;;;;;;;4.82;2.05;;;13.10;99.90;;;;;;5079919;28;20044;-85
2023/07/22 01:56:20;;;;;;;5.80;1.70;;;13.10;99.90;;;;;;5097759;28;20051;-84
2023/07/22 01:59:06;;;;;;;5.55;2.00;;;13.10;99.90;;;;;;5096163;28;20044;-85
2023/07/22 02:01:52;;;;;;;4.85;1.42;;;13.00;99.90;;;;;;5074788;28;20056;-84
2023/07/22 02:04:38;;;;;;;4.43;1.98;;;13.00;99.90;;;;;;5074223;28;20048;-84
2023/07/22 02:07:26;;;;;;;5.65;2.25;;;13.00;99.90;;;;;;5093000;28;20048;-84
2023/07/22 02:10:13;;;;;;;6.13;2.15;;;12.90;99.90;;;;;;5076208;28;20097;-84
2023/07/22 02:12:59;;;;;;;6.55;1.65;;;12.90;99.90;;;;;;5059007;28;20064;-85
2023/07/22 02:15:46;;;;;;;4.90;1.83;;;12.90;99.90;;;;;;5092526;28;20105;-83
2023/07/22 02:18:32;;;;;;;5.22;1.85;;;12.90;99.90;;;;;;5076330;28;20047;-84
2023/07/22 02:21:18;;;;;;;6.50;1.83;;;12.80;99.90;;;;;;5090399;28;20048;-85
2023/07/22 02:24:04;;;;;;;5.65;2.40;;;12.80;99.90;;;;;;5090948;28;20044;-83
2023/07/22 02:26:50;;;;;;;5.15;2.00;;;12.80;99.90;;;;;;5090227;28;20050;-85
2023/07/22 02:29:36;;;;;;;5.30;2.00;;;12.70;99.90;;;;;;5090466;28;20044;-83
2023/07/22 02:32:23;;;;;;;3.53;1.80;;;12.70;99.90;;;;;;5090353;28;20044;-83
2023/07/22 02:35:10;;;;;;;5.82;2.08;;;12.80;99.90;;;;;;5073201;28;20052;-82
2023/07/22 02:37:56;;;;;;;4.10;1.67;;;12.70;99.90;;;;;;5073919;28;20139;-84
2023/07/22 02:40:42;;;;;;;4.63;1.55;;;12.70;99.90;;;;;;5073360;28;20055;-83
2023/07/22 02:43:28;;;;;;;7.00;1.85;;;12.60;99.90;;;;;;5080967;28;20043;-82
2023/07/22 02:46:15;;;;;;;4.53;1.52;;;12.60;99.90;;;;;;5099451;28;20082;-84
2023/07/22 02:49:01;;;;;;;8.50;2.35;;;12.60;99.90;;;;;;5091310;28;20076;-83
2023/07/22 02:51:47;;;;;;;8.13;1.80;;;12.60;99.90;;;;;;5090794;28;20491;-83
2023/07/22 02:54:41;;;;;;;5.30;1.63;;;12.60;99.90;;;;;;5072080;28;20142;-83
2023/07/22 02:57:27;;;;;;;5.97;2.00;;;12.60;99.90;;;;;;5090583;28;20083;-81
2023/07/22 03:00:20;;;;;;;9.90;2.50;;;12.60;99.90;;;;;;5089911;28;20055;-82
2023/07/22 03:03:06;;;;;;;9.60;1.73;;;12.70;99.90;;;;;;5073344;28;20059;-82
2023/07/22 03:05:54;;;;;;;7.45;2.35;;;12.60;99.90;;;;;;5092459;28;20432;-83
2023/07/22 03:08:40;;;;;;;7.53;1.90;;;12.60;99.90;;;;;;5090320;28;20044;-82
2023/07/22 03:11:27;;;;;;;5.35;1.77;;;12.60;99.90;;;;;;5089871;28;20055;-84
2023/07/22 03:14:13;;;;;;;7.38;2.08;;;12.60;99.90;;;;;;5092734;28;20043;-83
2023/07/22 03:16:59;;;;;;;5.68;1.88;;;12.60;99.90;;;;;;5089806;28;20458;-84
2023/07/22 03:19:45;;;;;;;13.93;2.30;;;12.60;99.90;;;;;;5076423;28;20480;-82
2023/07/22 03:22:31;;;;;;;5.85;1.77;;;12.60;99.90;;;;;;5090341;28;20055;-82
2023/07/22 03:25:17;;;;;;;5.78;2.70;;;12.60;99.90;;;;;;5075791;28;20059;-82
2023/07/22 03:28:05;;;;;;;6.03;1.90;;;12.70;99.90;;;;;;5060212;28;20063;-83
2023/07/22 03:30:52;;;;;;;6.28;1.88;;;12.70;99.90;;;;;;5094056;28;20048;-83
2023/07/22 03:33:39;;;;;;;7.30;1.70;;;12.70;99.90;;;;;;5094869;28;20048;-82
2023/07/22 03:36:25;;;;;;;6.13;1.80;;;12.70;99.90;;;;;;5071503;28;20052;-82
2023/07/22 03:39:11;;;;;;;8.38;2.70;;;12.70;99.90;;;;;;5091783;28;20083;-81
2023/07/22 03:41:57;;;;;;;5.43;2.03;;;12.80;99.90;;;;;;5090231;28;20151;-81
2023/07/22 03:44:43;;;;;;;4.93;1.83;;;12.80;99.90;;;;;;5071449;28;20059;-81
2023/07/22 03:47:29;;;;;;;8.27;2.35;;;12.70;99.90;;;;;;5089877;28;20492;-81
2023/07/22 03:50:15;;;;;;;6.70;1.67;;;12.80;99.90;;;;;;5089755;28;20412;-82
2023/07/22 03:53:01;;;;;;;5.22;2.00;;;12.80;99.90;;;;;;5089692;28;20468;-82
2023/07/22 03:55:47;;;;;;;7.70;2.25;;;12.80;99.90;;;;;;5089734;28;20158;-82
2023/07/22 03:58:33;;;;;;;5.03;2.00;;;12.80;99.90;;;;;;5090566;28;20055;-82
2023/07/22 04:01:19;;;;;;;7.22;2.65;;;12.80;99.90;;;;;;5076370;28;20415;-82
2023/07/22 04:04:06;;;;;;;5.00;2.10;;;12.80;99.90;;;;;;5089540;28;20051;-82
2023/07/22 04:06:52;;;;;;;3.67;1.63;;;12.90;99.90;;;;;;5071597;28;20048;-82
2023/07/22 04:09:38;;;;;;;6.50;1.73;;;12.90;99.90;;;;;;5088821;28;20507;-83
2023/07/22 04:12:24;;;;;;;6.30;2.30;;;13.00;99.90;;;;;;5089846;28;20139;-81
2023/07/22 04:15:12;;;;;;;6.45;1.95;;;12.90;99.90;;;;;;5071965;28;20048;-83
2023/07/22 04:17:58;;;;;;;9.75;2.45;;;13.00;99.90;;;;;;5090353;28;20105;-82
2023/07/22 04:20:45;;;;;;;7.32;2.10;;;13.10;99.90;;;;;;5074800;28;20048;-82
2023/07/22 04:23:33;;;;;;;4.65;2.00;;;13.10;99.90;;;;;;5074463;28;20055;-83
2023/07/22 04:26:19;;;;;;;6.75;2.20;;;13.10;99.90;;;;;;5090239;28;20063;-82
2023/07/22 04:29:05;;;;;;;7.32;2.55;;;13.20;99.90;;;;;;5089204;28;20127;-83
2023/07/22 04:31:51;;;;;;;7.68;2.53;;;13.20;99.90;;;;;;5090597;28;20070;-83
2023/07/22 04:34:37;;;;;;;6.80;2.38;;;13.20;99.90;;;;;;5091255;28;20050;-83
2023/07/22 04:37:23;;;;;;;7.45;2.58;;;13.20;99.90;;;;;;5090882;28;20404;-83
2023/07/22 04:40:14;;;;;;;6.20;2.88;;;13.30;99.90;;;;;;5073956;28;20048;-83
2023/07/22 04:43:00;;;;;;;5.55;2.45;;;13.30;99.90;;;;;;5095868;28;20519;-82
2023/07/22 04:45:49;;;;;;;6.63;2.42;;;13.40;99.90;;;;;;5089794;28;20048;-82
2023/07/22 04:48:36;;;;;;;7.03;2.33;;;13.50;99.90;;;;;;5089327;28;20558;-82
2023/07/22 04:51:22;;;;;;;5.57;2.33;;;13.50;99.90;;;;;;5094434;28;20496;-82
2023/07/22 04:54:09;;;;;;;8.20;2.22;;;13.50;99.90;;;;;;5094249;28;20108;-83
2023/07/22 04:56:55;;;;;;;9.00;3.08;;;13.60;99.90;;;;;;5078103;28;20052;-82
2023/07/22 04:59:41;;;;;;;9.13;2.40;;;13.70;99.90;;;;;;5092869;28;20542;-82
2023/07/22 05:02:27;;;;;;;8.30;3.10;;;13.60;99.90;;;;;;5094090;28;20043;-85
2023/07/22 05:05:13;;;;;;;6.47;2.72;;;13.70;99.90;;;;;;5094269;28;20052;-84
2023/07/22 05:08:00;;;;;;;6.32;2.47;;;13.70;99.90;;;;;;5093131;28;20059;-83
2023/07/22 05:10:46;;;;;;;7.43;2.60;;;13.70;99.90;;;;;;5093804;28;20048;-83
2023/07/22 05:13:33;;;;;;;8.48;3.28;;;13.70;99.90;;;;;;5092657;28;20395;-83
2023/07/22 05:16:21;;;;;;;8.15;3.42;;;13.70;99.90;;;;;;5093589;28;20135;-83
2023/07/22 05:19:08;;;;;;;10.95;4.10;;;13.70;99.90;;;;;;5094368;28;20087;-81
2023/07/22 05:21:54;;;;;;;14.93;4.40;;;13.70;99.90;;;;;;5092618;28;20052;-82
2023/07/22 05:24:40;;;;;;;10.18;3.75;;;13.80;99.90;;;;;;5093529;28;20055;-82
2023/07/22 05:27:27;;;;;;;9.40;4.55;;;13.80;99.90;;;;;;5091465;28;20044;-82
2023/07/22 05:30:13;;;;;;;10.60;4.22;;;13.80;99.90;;;;;;5093162;28;20094;-83
2023/07/22 05:32:59;;;;;;;10.18;4.43;;;13.90;99.90;;;;;;5078718;28;20048;-84
2023/07/22 05:35:46;;;;;;;11.77;5.55;;;14.00;99.90;;;;;;5074668;28;20043;-84
2023/07/22 05:38:32;;;;;;;14.43;5.40;;;14.10;99.90;;;;;;5074664;28;20101;-82
2023/07/22 05:41:19;;;;;;;12.50;5.80;;;14.10;99.90;;;;;;5092298;28;20058;-82
2023/07/22 05:44:05;;;;;;;11.57;5.68;;;14.20;99.90;;;;;;5059763;28;20051;-83
2023/07/22 05:46:52;;;;;;;9.57;5.45;;;14.30;99.90;;;;;;5091692;28;20048;-83
2023/07/22 05:49:38;;;;;;;13.02;5.75;;;14.40;99.90;;;;;;5094922;28;20064;-83
2023/07/22 05:52:25;;;;;;;24.15;6.07;;;14.50;99.90;;;;;;5080278;28;20044;-82
2023/07/22 05:55:11;;;;;;;13.70;6.45;;;14.60;99.90;;;;;;5091915;28;20055;-82
2023/07/22 05:57:58;;;;;;;12.13;6.18;;;14.60;99.90;;;;;;5061393;28;20048;-83
2023/07/22 06:00:45;;;;;;;12.57;6.15;;;14.70;99.90;;;;;;5091278;28;20044;-84
2023/07/22 06:03:32;;;;;;;12.48;6.07;;;14.80;99.90;;;;;;5091774;28;20523;-82
2023/07/22 06:06:18;;;;;;;13.20;5.68;;;14.90;99.90;;;;;;5075693;28;20052;-83
2023/07/22 06:09:04;;;;;;;12.93;6.45;;;15.00;99.90;;;;;;5077428;28;20492;-82
2023/07/22 06:11:51;;;;;;;12.48;6.53;;;15.00;99.90;;;;;;5092179;28;20634;-82
2023/07/22 06:14:40;;;;;;;12.23;6.20;;;15.00;99.90;;;;;;5075436;28;20048;-83
2023/07/22 06:17:26;;;;;;;10.50;5.60;;;15.00;99.90;;;;;;5091693;28;20104;-83
2023/07/22 06:20:13;;;;;;;13.43;6.13;;;15.00;99.90;;;;;;5074058;28;20078;-81
2023/07/22 06:22:59;;;;;;;15.40;6.35;;;15.00;99.90;;;;;;5075719;28;20051;-83
2023/07/22 06:25:45;;;;;;;12.60;6.78;;;15.00;99.90;;;;;;5077037;28;20048;-82
2023/07/22 06:28:31;;;;;;;12.75;6.57;;;15.10;99.90;;;;;;5077622;28;20039;-85
2023/07/22 06:31:18;;;;;;;11.63;6.65;;;15.10;99.90;;;;;;5072896;28;20048;-84
2023/07/22 06:34:04;;;;;;;13.45;6.72;;;15.10;99.90;;;;;;5090381;28;20105;-82
2023/07/22 06:36:50;;;;;;;12.30;7.05;;;15.20;99.90;;;;;;5091956;28;20125;-81
2023/07/22 06:39:36;;;;;;;11.90;6.30;;;15.20;99.90;;;;;;5090772;28;20147;-83
2023/07/22 06:42:22;;;;;;;14.68;6.35;;;15.30;99.90;;;;;;5077579;28;20130;-83
2023/07/22 06:45:09;;;;;;;13.40;6.35;;;15.40;99.90;;;;;;5072982;28;20056;-84
2023/07/22 06:47:55;;;;;;;12.45;6.10;;;15.50;99.90;;;;;;5091550;28;20048;-82
2023/07/22 06:50:50;;;;;;;12.73;6.85;;;15.60;99.90;;;;;;5090666;28;20040;-84
2023/07/22 06:53:36;;;;;;;13.25;6.50;;;15.60;99.90;;;;;;5091028;28;20101;-84
2023/07/22 06:56:22;;;;;;;11.93;6.65;;;15.50;99.90;;;;;;5075477;28;20126;-83
2023/07/22 06:59:08;;;;;;;11.32;6.32;;;15.50;99.90;;;;;;5090623;28;20048;-84
2023/07/22 07:01:54;;;;;;;12.18;6.10;;;15.50;99.90;;;;;;5092171;28;20143;-83
2023/07/22 07:04:40;;;;;;;11.32;5.65;;;15.40;99.90;;;;;;5091607;28;20048;-83
2023/07/22 07:07:27;;;;;;;12.35;6.53;;;15.40;99.90;;;;;;5094664;28;20047;-84
2023/07/22 07:10:13;;;;;;;13.50;6.75;;;15.30;99.90;;;;;;5076880;28;20059;-84
2023/07/22 07:12:59;;;;;;;13.88;6.72;;;15.30;99.90;;;;;;5093617;28;20101;-83
2023/07/22 07:15:48;;;;;;;11.45;6.63;;;15.30;99.90;;;;;;5098150;28;20181;-83
2023/07/22 07:18:34;;;;;;;13.75;7.70;;;15.20;99.90;;;;;;5092472;28;20055;-83
2023/07/22 07:21:21;;;;;;;14.07;6.93;;;15.20;99.90;;;;;;5095851;28;20052;-84
2023/07/22 07:24:07;;;;;;;13.75;6.57;;;15.30;99.90;;;;;;5079583;28;20052;-83
2023/07/22 07:26:54;;;;;;;13.85;6.93;;;15.30;99.90;;;;;;5094169;28;20054;-83
2023/07/22 07:29:40;;;;;;;12.00;6.95;;;15.50;99.90;;;;;;5090650;28;20055;-84
2023/07/22 07:32:26;;;;;;;13.93;6.97;;;15.50;99.90;;;;;;5096984;28;20465;-83
2023/07/22 07:35:12;;;;;;;15.27;7.97;;;15.60;99.90;;;;;;5098397;28;20075;-84
2023/07/22 07:37:58;;;;;;;15.48;6.95;;;15.60;99.90;;;;;;5097174;28;20047;-85
2023/07/22 07:40:44;;;;;;;15.60;7.50;;;15.70;99.90;;;;;;5091895;28;20101;-81
2023/07/22 07:43:30;;;;;;;16.25;8.88;;;15.80;99.90;;;;;;5079823;28;20190;-82
2023/07/22 07:46:20;;;;;;;14.15;7.80;;;15.90;99.90;;;;;;5076671;28;20041;-82
2023/07/22 07:49:06;;;;;;;13.02;7.20;;;16.00;99.90;;;;;;5095121;28;20040;-82
2023/07/22 07:51:52;;;;;;;13.25;7.32;;;16.00;99.90;;;;;;5090001;28;20055;-82
2023/07/22 07:54:39;;;;;;;14.40;7.55;;;16.00;99.90;;;;;;5091091;28;20141;-81
2023/07/22 07:57:25;;;;;;;15.63;8.00;;;15.90;99.90;;;;;;5091662;28;20162;-81
2023/07/22 08:00:11;;;;;;;14.57;7.40;;;15.90;99.90;;;;;;5091551;28;20123;-83
2023/07/22 08:02:58;;;;;;;17.33;8.48;;;16.00;99.90;;;;;;5090896;28;20052;-81
2023/07/22 08:05:44;;;;;;;17.10;8.18;;;16.10;99.90;;;;;;5089864;28;20082;-80
2023/07/22 08:08:30;;;;;;;18.73;9.32;;;16.20;99.90;;;;;;5092668;28;20389;-81
2023/07/22 08:11:16;;;;;;;16.35;9.15;;;16.30;99.90;;;;;;5091328;28;20104;-84
2023/07/22 08:14:02;;;;;;;15.27;8.07;;;16.40;99.90;;;;;;5073636;28;20060;-81
2023/07/22 08:16:48;;;;;;;14.73;8.27;;;16.50;99.90;;;;;;5091643;28;20060;-82
2023/07/22 08:19:34;;;;;;;20.17;9.13;;;16.60;99.90;;;;;;5075651;28;20055;-81
2023/07/22 08:22:20;;;;;;;18.10;8.65;;;16.70;99.90;;;;;;5090981;28;20495;-82
2023/07/22 08:25:07;;;;;;;18.48;8.52;;;16.70;99.90;;;;;;5078119;28;20044;-81
2023/07/22 08:27:53;;;;;;;14.50;8.48;;;16.70;99.90;;;;;;5094531;28;20051;-82
2023/07/22 08:30:40;;;;;;;18.45;9.30;;;16.80;99.90;;;;;;5096285;28;20500;-80
2023/07/22 08:33:26;;;;;;;15.40;8.43;;;16.90;99.90;;;;;;5095215;28;20065;-81
2023/07/22 08:36:12;;;;;;;20.15;10.57;;;16.90;99.90;;;;;;5076003;28;20052;-81
2023/07/22 08:38:59;;;;;;;18.13;9.90;;;17.00;99.90;;;;;;5094285;28;20059;-81
2023/07/22 08:41:52;;;;;;;14.25;7.47;;;17.20;99.90;;;;;;5082213;28;20055;-81
2023/07/22 08:44:43;;;;;;;15.80;8.57;;;17.20;99.90;;;;;;5095870;28;20117;-82
2023/07/22 08:47:30;;;;;;;13.15;7.13;;;17.40;99.90;;;;;;5095279;28;20138;-81
2023/07/22 08:50:20;;;;;;;12.40;6.63;;;17.60;99.90;;;;;;5096980;28;20044;-81
2023/07/22 08:53:06;;;;;;;12.98;6.70;;;17.60;99.90;;;;;;5099166;28;20044;-82
2023/07/22 08:55:53;;;;;;;10.82;6.20;;;17.70;99.90;;;;;;5094598;28;20044;-81
2023/07/22 08:58:42;;;;;;;15.70;8.02;;;17.80;99.90;;;;;;5099530;28;20044;-80
2023/07/22 09:01:28;;;;;;;12.82;7.25;;;18.00;99.90;;;;;;5078333;28;20331;-81
2023/07/22 09:04:14;;;;;;;12.90;6.25;;;18.10;99.90;;;;;;5097998;28;20040;-82
2023/07/22 09:07:01;;;;;;;11.63;6.72;;;18.30;99.90;;;;;;5084910;28;20052;-81
2023/07/22 09:09:47;;;;;;;12.70;7.63;;;18.50;99.90;;;;;;5100243;28;20561;-82
2023/07/22 09:12:39;;;;;;;14.68;6.70;;;18.60;99.90;;;;;;5084669;28;20134;-82
2023/07/22 09:15:27;;;;;;;10.52;6.43;;;18.60;99.90;;;;;;5100027;28;20048;-82
2023/07/22 09:18:14;;;;;;;12.52;7.35;;;18.50;99.90;;;;;;5081097;28;20062;-81
2023/07/22 09:21:01;;;;;;;12.57;6.80;;;18.40;99.90;;;;;;5083157;28;20387;-81
2023/07/22 09:23:47;;;;;;;13.25;6.72;;;18.20;99.90;;;;;;5094871;28;20055;-82
2023/07/22 09:26:33;;;;;;;13.93;7.22;;;18.10;99.90;;;;;;5093367;28;20058;-81
2023/07/22 09:29:36;;;;;;;15.75;7.43;;;18.00;99.90;;;;;;5075517;28;20059;-80
2023/07/22 09:32:36;;;;;;;15.43;7.75;;;17.90;99.90;;;;;;5092382;28;20102;-80
2023/07/22 09:35:25;;;;;;;13.40;7.40;;;17.90;99.90;;;;;;5092929;28;20059;-81
2023/07/22 09:38:11;;;;;;;16.70;7.63;;;17.80;99.90;;;;;;5077115;28;20048;-82
2023/07/22 09:40:57;;;;;;;13.13;7.20;;;17.80;99.90;;;;;;5092186;28;20148;-81
2023/07/22 09:43:48;;;;;;;12.73;7.60;;;17.80;99.90;;;;;;5061359;28;20052;-81
2023/07/22 09:46:34;;;;;;;13.00;7.72;;;17.70;99.90;;;;;;5075911;28;20044;-80
2023/07/22 09:49:21;;;;;;;13.73;7.75;;;17.80;99.90;;;;;;5074232;28;20044;-81
2023/07/22 09:52:12;;;;;;;14.50;8.57;;;17.80;99.90;;;;;;5065244;28;20428;-81
2023/07/22 09:55:01;;;;;;;13.77;7.05;;;17.70;99.90;;;;;;5092017;28;20048;-81
2023/07/22 09:57:54;;;;;;;10.35;5.68;;;17.60;99.90;;;;;;5092793;28;20048;-81
2023/07/22 10:00:46;;;;;;;9.55;5.05;;;17.50;99.90;;;;;;5091468;28;20439;-81
2023/07/22 10:03:33;;;;;;;10.55;4.68;;;17.50;99.90;;;;;;5073095;28;20063;-81
2023/07/22 10:06:19;;;;;;;6.68;3.00;;;17.50;99.90;;;;;;5091573;28;20077;-81
2023/07/22 10:09:07;;;;;;;6.95;3.53;;;17.40;99.90;;;;;;5091254;28;20044;-81
2023/07/22 10:11:53;;;;;;;8.98;3.08;;;17.40;99.90;;;;;;5091382;28;20052;-80
2023/07/22 10:14:40;;;;;;;7.03;3.53;;;17.40;99.90;;;;;;5091596;28;20048;-81
2023/07/22 10:17:29;;;;;;;8.05;5.18;;;17.30;99.90;;;;;;5091108;28;20063;-81
2023/07/22 10:20:15;;;;;;;8.80;5.22;;;17.10;99.90;;;;;;5076615;28;20040;-80
2023/07/22 10:23:01;;;;;;;8.75;5.00;;;17.00;99.90;;;;;;5090720;28;20044;-82
2023/07/22 10:25:49;;;;;;;10.60;5.35;;;16.90;99.90;;;;;;5091297;28;20062;-81
2023/07/22 10:28:37;;;;;;;9.45;5.05;;;16.90;99.90;;;;;;5090893;28;20510;-82
2023/07/22 10:31:23;;;;;;;9.70;5.15;;;16.90;99.90;;;;;;5076808;28;20051;-82
2023/07/22 10:34:09;;;;;;;9.57;5.30;;;16.70;99.90;;;;;;5091582;28;20048;-80
2023/07/22 10:36:58;;;;;;;10.68;5.93;;;16.70;99.90;;;;;;5078049;28;20052;-81
2023/07/22 10:39:46;;;;;;;15.60;7.78;;;16.70;99.90;;;;;;5090986;28;20044;-80
2023/07/22 10:42:32;;;;;;;14.10;7.82;;;16.70;99.90;;;;;;5060404;28;20052;-80
2023/07/22 10:45:27;;;;;;;11.30;7.32;;;16.70;99.90;;;;;;5072593;28;20407;-81
2023/07/22 10:48:13;;;;;;;13.68;7.03;;;16.80;99.90;;;;;;5073744;28;20091;-82
2023/07/22 10:51:09;;;;;;;13.32;6.75;;;16.70;99.90;;;;;;5073100;28;20150;-80
2023/07/22 10:53:55;;;;;;;13.38;7.07;;;16.70;99.90;;;;;;5058958;28;20044;-80
2023/07/22 10:56:43;;;;;;;14.30;6.95;;;16.70;99.90;;;;;;5092634;28;20047;-80
2023/07/22 10:59:34;;;;;;;15.30;5.93;;;16.70;99.90;;;;;;5073482;28;20480;-82
2023/07/22 11:02:28;;;;;;;8.52;5.05;;;16.70;99.90;;;;;;5077386;28;20066;-81
2023/07/22 11:05:16;;;;;;;10.23;5.32;;;16.70;99.90;;;;;;5090858;28;20047;-81
2023/07/22 11:08:05;;;;;;;9.00;4.53;;;16.60;99.90;;;;;;5090568;28;20091;-80
2023/07/22 11:10:55;;;;;;;8.88;4.53;;;16.70;99.90;;;;;;5073548;28;20906;-82
2023/07/22 11:13:42;;;;;;;7.35;4.55;;;16.70;99.90;;;;;;5074710;28;20100;-81
2023/07/22 11:16:29;;;;;;;9.32;4.72;;;16.70;99.90;;;;;;5090343;28;20488;-81
2023/07/22 11:19:18;;;;;;;8.20;4.45;;;16.60;99.90;;;;;;5072232;28;20435;-80
2023/07/22 11:22:05;;;;;;;6.38;3.70;;;16.60;99.90;;;;;;5089902;28;20507;-81
2023/07/22 11:24:52;;;;;;;5.95;3.60;;;16.60;99.90;;;;;;5091015;28;20044;-81
2023/07/22 11:27:38;;;;;;;6.25;3.53;;;16.50;99.90;;;;;;5092266;28;20128;-83
2023/07/22 11:30:24;;;;;;;8.68;3.83;;;16.50;99.90;;;;;;5091589;28;20044;-83
2023/07/22 11:33:11;;;;;;;5.35;3.17;;;16.60;99.90;;;;;;5088980;28;20040;-82
2023/07/22 11:35:57;;;;;;;10.10;3.40;;;16.80;99.90;;;;;;5089644;28;20052;-81
2023/07/22 11:38:43;;;;;;;8.48;3.13;;;16.90;99.90;;;;;;5089774;28;20160;-82
2023/07/22 11:41:30;;;;;;;6.70;3.22;;;17.20;99.90;;;;;;5091027;28;20051;-81
2023/07/22 11:44:19;;;;;;;7.15;4.10;;;17.20;99.90;;;;;;5091415;28;20044;-82
2023/07/22 11:47:09;;;;;;;7.28;3.40;;;17.30;99.90;;;;;;5089501;28;20093;-81
2023/07/22 11:49:55;;;;;;;6.05;3.00;;;17.20;99.90;;;;;;5089346;28;20480;-82
2023/07/22 11:52:41;;;;;;;6.35;3.10;;;17.10;99.90;;;;;;5089241;28;20097;-81
2023/07/22 11:55:28;;;;;;;7.95;3.90;;;17.00;99.90;;;;;;5088896;28;20089;-81
2023/07/22 11:58:14;;;;;;;7.97;4.13;;;17.00;99.90;;;;;;5088934;28;20055;-81
2023/07/22 12:01:10;;;;;;;9.15;4.40;;;17.10;99.90;;;;;;5072322;28;20056;-81
2023/07/22 12:03:56;;;;;;;9.00;4.22;;;17.20;99.90;;;;;;5074212;28;20629;-81
2023/07/22 12:06:42;;;;;;;8.38;4.13;;;17.40;99.90;;;;;;5089346;28;20048;-82
2023/07/22 12:09:28;;;;;;;8.88;4.32;;;17.60;99.90;;;;;;5070934;28;20054;-81
2023/07/22 12:12:14;;;;;;;7.05;4.28;;;17.80;99.90;;;;;;5089903;28;20048;-82
2023/07/22 12:15:17;;;;;;;11.40;4.38;;;17.90;99.90;;;;;;5089285;28;20051;-82
2023/07/22 12:18:04;;;;;;;7.10;4.38;;;18.10;99.90;;;;;;5075757;28;20051;-81
2023/07/22 12:20:50;;;;;;;9.85;5.40;;;18.30;99.90;;;;;;5076494;28;20401;-81
2023/07/22 12:23:37;;;;;;;9.82;5.55;;;18.30;99.90;;;;;;5090967;28;20048;-82
2023/07/22 12:26:23;;;;;;;10.32;4.53;;;18.40;99.90;;;;;;5089389;28;20440;-82
2023/07/22 12:29:10;;;;;;;6.30;4.32;;;18.50;99.90;;;;;;5075104;28;20044;-81
2023/07/22 12:31:57;;;;;;;7.45;4.40;;;18.40;99.90;;;;;;5091002;28;20479;-81
2023/07/22 12:34:43;;;;;;;9.73;6.28;;;18.50;99.90;;;;;;5075782;28;20066;-81
2023/07/22 12:37:30;;;;;;;8.07;4.63;;;18.50;99.90;;;;;;5088982;28;20415;-81
2023/07/22 12:40:16;;;;;;;6.57;4.63;;;18.50;99.90;;;;;;5088451;28;20054;-82
2023/07/22 12:43:02;;;;;;;8.65;4.30;;;18.50;99.90;;;;;;5088814;28;20062;-82
2023/07/22 12:45:48;;;;;;;7.07;4.07;;;18.50;99.90;;;;;;5088854;28;20044;-81
2023/07/22 12:48:34;;;;;;;6.15;3.83;;;18.40;99.90;;;;;;5089416;28;20048;-81
2023/07/22 12:51:21;;;;;;;8.73;5.13;;;18.30;99.90;;;;;;5088642;28;20048;-82
2023/07/22 12:54:10;;;;;;;7.30;4.45;;;18.40;99.90;;;;;;5090128;28;20662;-82
2023/07/22 12:56:56;;;;;;;7.47;4.18;;;18.40;99.90;;;;;;5057024;28;20051;-81
2023/07/22 12:59:42;;;;;;;7.43;4.40;;;18.30;99.90;;;;;;5088417;28;20055;-82
2023/07/22 13:02:28;;;;;;;6.93;3.85;;;18.30;99.90;;;;;;5089902;28;20056;-82
2023/07/22 13:05:14;;;;;;;6.75;4.28;;;18.30;99.90;;;;;;5072179;28;20106;-82
2023/07/22 13:08:01;;;;;;;8.60;4.55;;;18.20;99.90;;;;;;5090749;28;20492;-82
2023/07/22 13:10:47;;;;;;;9.60;4.80;;;18.10;99.90;;;;;;5090539;28;20044;-83
2023/07/22 13:13:33;;;;;;;7.53;4.22;;;17.90;99.90;;;;;;5092494;28;20404;-82
2023/07/22 13:16:19;;;;;;;5.68;3.72;;;17.80;99.90;;;;;;5091915;28;20137;-81
2023/07/22 13:19:05;;;;;;;9.43;4.25;;;17.90;99.90;;;;;;5091633;28;20052;-82
2023/07/22 13:21:51;;;;;;;7.72;3.53;;;18.00;99.90;;;;;;5092474;28;20059;-82
2023/07/22 13:24:38;;;;;;;6.30;4.22;;;17.90;99.90;;;;;;5060971;28;20396;-83
2023/07/22 13:27:24;;;;;;;7.78;3.80;;;17.80;99.90;;;;;;5092008;28;20051;-82
2023/07/22 13:30:10;;;;;;;6.00;3.47;;;17.60;99.90;;;;;;5061672;28;20377;-83
2023/07/22 13:32:56;;;;;;;6.85;3.38;;;17.70;99.90;;;;;;5092475;28;20109;-82
2023/07/22 13:35:42;;;;;;;7.47;3.95;;;17.70;99.90;;;;;;5075515;28;20087;-82
2023/07/22 13:38:28;;;;;;;6.68;3.53;;;17.60;99.90;;;;;;5092146;28;20044;-82
2023/07/22 13:41:15;;;;;;;7.15;3.42;;;17.60;99.90;;;;;;5093699;28;20051;-79
2023/07/22 13:44:01;;;;;;;8.45;3.75;;;17.50;99.90;;;;;;5092777;28;20491;-82
2023/07/22 13:46:47;;;;;;;6.85;3.30;;;17.40;99.90;;;;;;5092069;28;20110;-83
2023/07/22 13:49:33;;;;;;;5.82;3.38;;;17.40;99.90;;;;;;5062633;28;20047;-81
2023/07/22 13:52:20;;;;;;;7.57;3.50;;;17.40;99.90;;;;;;5098677;28;20063;-80
2023/07/22 13:55:07;;;;;;;8.57;3.17;;;17.30;99.90;;;;;;5074057;28;20063;-81
2023/07/22 13:57:53;;;;;;;10.40;2.85;;;17.30;99.90;;;;;;5091822;28;20042;-80
2023/07/22 14:00:39;;;;;;;5.32;2.80;;;17.20;99.90;;;;;;5093268;28;20367;-82
2023/07/22 14:03:25;;;;;;;8.93;3.60;;;17.10;99.90;;;;;;5092446;28;20056;-81
2023/07/22 14:06:11;;;;;;;7.97;3.15;;;17.00;99.90;;;;;;5092355;28;20445;-82
2023/07/22 14:08:58;;;;;;;7.55;3.38;;;16.90;99.90;;;;;;5075685;28;20040;-82
2023/07/22 14:11:44;;;;;;;8.05;3.50;;;16.80;99.90;;;;;;5073676;28;20044;-82
2023/07/22 14:14:30;;;;;;;8.75;3.90;;;16.80;99.90;;;;;;5092314;28;20570;-82
2023/07/22 14:17:17;;;;;;;9.32;4.28;;;16.70;99.90;;;;;;5075711;28;20059;-82
2023/07/22 14:20:04;;;;;;;7.40;3.83;;;16.50;99.90;;;;;;5073094;28;20044;-81
2023/07/22 14:22:50;;;;;;;8.93;3.42;;;16.50;99.90;;;;;;5090944;28;20059;-82
2023/07/22 14:25:37;;;;;;;10.68;3.92;;;16.50;99.90;;;;;;5091934;28;20656;-82